createdAt,value
2023-03-11T00:00:17.111Z,2.80
2023-03-11T00:02:47.651Z,2.80
2023-03-11T00:05:18.753Z,2.80
2023-03-11T00:07:46.968Z,2.80
2023-03-11T00:10:17.009Z,2.80
2023-03-11T00:12:44.918Z,2.80
2023-03-11T00:15:13.480Z,2.80
2023-03-11T00:17:41.825Z,2.80
2023-03-11T00:20:18.483Z,2.70
2023-03-11T00:22:46.677Z,2.70
2023-03-11T00:25:15.571Z,2.60
2023-03-11T00:27:43.471Z,2.50
2023-03-11T00:30:13.056Z,2.40
2023-03-11T00:32:41.023Z,2.40
2023-03-11T00:35:13.411Z,2.40
2023-03-11T00:37:41.343Z,2.40
2023-03-11T00:40:13.621Z,2.30
2023-03-11T00:42:41.522Z,2.30
2023-03-11T00:45:12.259Z,2.20
2023-03-11T00:47:40.547Z,2.20
2023-03-11T00:50:12.167Z,2.20
2023-03-11T00:52:41.432Z,2.20
2023-03-11T00:55:11.155Z,2.10
2023-03-11T00:57:40.048Z,2.10
2023-03-11T01:00:12.166Z,2.10
2023-03-11T01:02:40.129Z,2.10
2023-03-11T01:05:09.192Z,2.10
2023-03-11T01:07:37.465Z,2.10
2023-03-11T01:10:09.190Z,2.10
2023-03-11T01:12:37.317Z,2.10
2023-03-11T01:15:06.538Z,2.20
2023-03-11T01:17:34.475Z,2.10
2023-03-11T01:20:02.452Z,2.10
2023-03-11T01:22:30.333Z,2.10
2023-03-11T01:24:58.217Z,2.10
2023-03-11T01:27:28.425Z,2.00
2023-03-11T01:29:56.749Z,2.10
2023-03-11T01:32:25.777Z,2.10
2023-03-11T01:34:53.676Z,2.10
2023-03-11T01:37:21.569Z,2.00
2023-03-11T01:39:49.790Z,2.00
2023-03-11T01:42:17.794Z,2.00
2023-03-11T01:44:47.358Z,2.10
2023-03-11T01:47:46.392Z,2.00
2023-03-11T01:50:14.949Z,2.00
2023-03-11T01:52:44.546Z,2.00
2023-03-11T01:55:13.784Z,2.00
2023-03-11T01:57:45.255Z,2.00
2023-03-11T02:00:16.624Z,2.00
2023-03-11T02:02:49.641Z,2.00
2023-03-11T02:05:19.204Z,2.00
2023-03-11T02:07:47.969Z,1.90
2023-03-11T02:10:19.129Z,1.90
2023-03-11T02:12:49.087Z,1.90
2023-03-11T02:15:25.593Z,1.80
2023-03-11T02:17:56.298Z,1.80
2023-03-11T02:20:36.496Z,1.70
2023-03-11T02:23:10.603Z,1.70
2023-03-11T02:25:47.043Z,1.60
2023-03-11T02:28:19.143Z,1.60
2023-03-11T02:30:47.981Z,1.50
2023-03-11T02:33:17.438Z,1.50
2023-03-11T02:35:47.283Z,1.50
2023-03-11T02:38:15.782Z,1.50
2023-03-11T02:40:55.561Z,1.50
2023-03-11T02:43:33.483Z,1.50
2023-03-11T02:46:02.989Z,1.50
2023-03-11T02:48:31.898Z,1.40
2023-03-11T02:51:01.692Z,1.40
2023-03-11T02:53:34.258Z,1.50
2023-03-11T02:56:02.274Z,1.40
2023-03-11T02:58:32.017Z,1.40
2023-03-11T03:00:59.984Z,1.40
2023-03-11T03:03:28.261Z,1.40
2023-03-11T03:05:56.077Z,1.30
2023-03-11T03:08:24.148Z,1.40
2023-03-11T03:10:52.048Z,1.40
2023-03-11T03:13:19.932Z,1.30
2023-03-11T03:15:49.423Z,1.30
2023-03-11T03:18:17.362Z,1.20
2023-03-11T03:20:45.844Z,1.30
2023-03-11T03:23:15.682Z,1.20
2023-03-11T03:25:44.417Z,1.20
2023-03-11T03:28:12.692Z,1.20
2023-03-11T03:30:43.276Z,1.20
2023-03-11T03:33:14.553Z,1.10
2023-03-11T03:35:44.746Z,1.10
2023-03-11T03:38:21.062Z,1.10
2023-03-11T03:40:50.975Z,1.10
2023-03-11T03:43:21.716Z,1.10
2023-03-11T03:45:57.161Z,1.10
2023-03-11T03:48:28.215Z,1.10
2023-03-11T03:50:56.865Z,1.00
2023-03-11T03:53:24.829Z,1.00
2023-03-11T03:55:54.572Z,1.00
2023-03-11T03:58:22.664Z,1.00
2023-03-11T04:00:50.692Z,1.00
2023-03-11T04:03:18.726Z,0.90
2023-03-11T04:05:54.942Z,0.90
2023-03-11T04:08:22.951Z,0.90
2023-03-11T04:10:58.372Z,0.90
2023-03-11T04:13:27.656Z,0.90
2023-03-11T04:15:56.086Z,0.90
2023-03-11T04:18:24.188Z,0.90
2023-03-11T04:20:52.195Z,0.90
2023-03-11T04:23:22.363Z,0.80
2023-03-11T04:25:50.393Z,0.80
2023-03-11T04:28:20.104Z,0.80
2023-03-11T04:30:48.005Z,0.80
2023-03-11T04:33:16.364Z,0.70
2023-03-11T04:35:44.359Z,0.70
2023-03-11T04:38:12.752Z,0.70
2023-03-11T04:40:42.131Z,0.60
2023-03-11T04:43:10.328Z,0.60
2023-03-11T04:45:40.090Z,0.70
2023-03-11T04:48:09.001Z,0.60
2023-03-11T04:50:38.956Z,0.60
2023-03-11T04:53:06.908Z,0.60
2023-03-11T04:55:35.308Z,0.60
2023-03-11T04:58:04.918Z,0.60
2023-03-11T05:00:33.922Z,0.60
2023-03-11T05:03:06.870Z,0.60
2023-03-11T05:05:35.457Z,0.60
2023-03-11T05:08:03.998Z,0.70
2023-03-11T05:10:32.688Z,0.60
2023-03-11T05:13:05.193Z,0.70
2023-03-11T05:15:37.470Z,0.70
2023-03-11T05:18:07.130Z,0.80
2023-03-11T05:20:37.241Z,0.80
2023-03-11T05:23:05.537Z,0.90
2023-03-11T05:25:36.403Z,0.90
2023-03-11T05:28:06.822Z,0.90
2023-03-11T05:30:39.633Z,0.90
2023-03-11T05:33:07.617Z,1.00
2023-03-11T05:35:36.525Z,1.00
2023-03-11T05:38:04.830Z,1.10
2023-03-11T05:40:34.213Z,1.00
2023-03-11T05:43:02.586Z,1.10
2023-03-11T05:45:35.095Z,1.10
2023-03-11T05:48:03.572Z,1.10
2023-03-11T05:50:31.874Z,1.10
2023-03-11T05:53:00.714Z,1.10
2023-03-11T05:55:31.089Z,1.10
2023-03-11T05:57:59.200Z,1.10
2023-03-11T06:00:29.405Z,1.10
2023-03-11T06:03:01.045Z,1.10
2023-03-11T06:05:29.432Z,1.10
2023-03-11T06:07:57.976Z,1.10
2023-03-11T06:10:25.940Z,1.10
2023-03-11T06:12:53.882Z,1.10
2023-03-11T06:15:31.505Z,1.10
2023-03-11T06:18:01.273Z,1.10
2023-03-11T06:20:29.626Z,1.10
2023-03-11T06:22:57.731Z,1.20
2023-03-11T06:25:26.596Z,1.20
2023-03-11T06:27:55.658Z,1.20
2023-03-11T06:30:25.816Z,1.20
2023-03-11T06:33:02.341Z,1.20
2023-03-11T06:35:30.324Z,1.20
2023-03-11T06:37:58.226Z,1.20
2023-03-11T06:40:26.356Z,1.20
2023-03-11T06:42:54.387Z,1.20
2023-03-11T06:45:24.829Z,1.20
2023-03-11T06:47:53.712Z,1.30
2023-03-11T06:50:24.049Z,1.40
2023-03-11T06:52:53.168Z,1.50
2023-03-11T06:55:22.145Z,1.70
2023-03-11T06:57:50.072Z,1.80
2023-03-11T07:00:18.484Z,2.00
2023-03-11T07:02:52.060Z,2.20
2023-03-11T07:05:21.072Z,2.30
2023-03-11T07:07:54.839Z,2.50
2023-03-11T07:10:24.496Z,2.40
2023-03-11T07:12:52.633Z,2.40
2023-03-11T07:15:20.990Z,2.30
2023-03-11T07:17:48.905Z,2.50
2023-03-11T07:20:16.848Z,2.50
2023-03-11T07:22:44.729Z,2.90
2023-03-11T07:25:14.210Z,3.30
2023-03-11T07:28:06.630Z,3.80
2023-03-11T07:30:35.051Z,3.60
2023-03-11T07:33:02.909Z,3.40
2023-03-11T07:35:30.805Z,3.20
2023-03-11T07:37:58.743Z,3.50
2023-03-11T07:40:27.986Z,4.40
2023-03-11T07:42:55.848Z,4.00
2023-03-11T07:45:24.350Z,4.40
2023-03-11T07:47:52.311Z,5.70
2023-03-11T07:50:22.158Z,6.50
2023-03-11T07:52:50.155Z,7.60
2023-03-11T07:55:18.281Z,8.00
2023-03-11T07:57:51.561Z,8.20
2023-03-11T08:00:19.965Z,8.30
2023-03-11T08:02:47.877Z,8.40
2023-03-11T08:05:15.975Z,8.60
2023-03-11T08:07:43.870Z,9.30
2023-03-11T08:10:12.893Z,10.00
2023-03-11T08:12:40.851Z,10.20
2023-03-11T08:15:11.756Z,9.50
2023-03-11T08:17:39.650Z,8.90
2023-03-11T08:20:09.543Z,9.20
2023-03-11T08:22:43.406Z,10.10
2023-03-11T08:25:16.942Z,10.80
2023-03-11T08:27:44.989Z,10.70
2023-03-11T08:30:15.557Z,10.10
2023-03-11T08:32:43.476Z,9.00
2023-03-11T08:35:11.824Z,8.10
2023-03-11T08:37:39.722Z,7.90
2023-03-11T08:40:10.497Z,6.90
2023-03-11T08:42:38.386Z,6.60
2023-03-11T08:45:07.785Z,7.20
2023-03-11T08:47:37.472Z,8.80
2023-03-11T08:50:06.338Z,10.30
2023-03-11T08:52:34.263Z,11.30
2023-03-11T08:55:02.381Z,11.10
2023-03-11T08:57:30.343Z,10.60
2023-03-11T08:59:59.144Z,9.70
2023-03-11T09:02:27.402Z,10.30
2023-03-11T09:04:56.658Z,10.30
2023-03-11T09:07:24.526Z,10.10
2023-03-11T09:09:52.442Z,10.30
2023-03-11T09:12:20.303Z,10.80
2023-03-11T09:14:48.323Z,11.50
2023-03-11T09:17:17.313Z,12.50
2023-03-11T09:19:45.205Z,11.40
2023-03-11T09:22:14.555Z,10.70
2023-03-11T09:24:42.437Z,11.00
2023-03-11T09:27:10.999Z,10.20
2023-03-11T09:29:38.851Z,10.30
2023-03-11T09:32:07.285Z,10.70
2023-03-11T09:34:35.148Z,11.60
2023-03-11T09:37:03.098Z,12.10
2023-03-11T09:39:32.369Z,12.30
2023-03-11T09:42:04.782Z,12.70
2023-03-11T09:44:38.188Z,12.70
2023-03-11T09:47:25.277Z,13.90
2023-03-11T09:50:21.212Z,13.60
2023-03-11T09:52:57.481Z,13.10
2023-03-11T09:55:37.346Z,14.70
2023-03-11T09:58:14.873Z,15.40
2023-03-11T10:00:44.120Z,16.40
2023-03-11T10:03:26.053Z,16.40
2023-03-11T10:05:59.490Z,16.60
2023-03-11T10:08:30.057Z,16.80
2023-03-11T10:11:05.594Z,16.90
2023-03-11T10:13:41.050Z,16.80
2023-03-11T10:16:17.899Z,16.00
2023-03-11T10:18:53.472Z,15.00
2023-03-11T10:21:36.755Z,14.10
2023-03-11T10:24:19.398Z,14.10
2023-03-11T10:26:52.763Z,13.30
2023-03-11T10:29:22.805Z,13.70
2023-03-11T10:31:59.193Z,14.30
2023-03-11T10:34:34.076Z,14.60
2023-03-11T10:37:06.833Z,13.70
2023-03-11T10:39:35.138Z,12.70
2023-03-11T10:42:06.017Z,13.20
2023-03-11T10:44:36.047Z,14.10
2023-03-11T10:47:04.806Z,14.80
2023-03-11T10:49:33.460Z,13.90
2023-03-11T10:52:04.527Z,14.00
2023-03-11T10:54:34.448Z,14.20
2023-03-11T10:57:05.605Z,13.50
2023-03-11T10:59:37.466Z,13.40
2023-03-11T11:02:26.007Z,13.00
2023-03-11T11:05:07.482Z,12.80
2023-03-11T11:07:39.497Z,12.80
2023-03-11T11:10:19.571Z,12.20
2023-03-11T11:12:55.958Z,11.80
2023-03-11T11:15:26.323Z,11.70
2023-03-11T11:17:56.556Z,12.60
2023-03-11T11:20:25.542Z,12.50
2023-03-11T11:22:55.373Z,12.60
2023-03-11T11:25:29.761Z,12.20
2023-03-11T11:28:01.121Z,12.70
2023-03-11T11:30:30.415Z,13.70
2023-03-11T11:33:17.415Z,13.90
2023-03-11T11:35:52.453Z,13.60
2023-03-11T11:38:24.005Z,13.90
2023-03-11T11:40:52.545Z,14.50
2023-03-11T11:43:26.482Z,14.00
2023-03-11T11:45:58.693Z,14.20
2023-03-11T11:48:35.140Z,13.80
2023-03-11T11:51:11.194Z,13.80
2023-03-11T11:53:46.108Z,13.50
2023-03-11T11:56:14.602Z,13.80
2023-03-11T11:58:43.965Z,14.70
2023-03-11T12:01:17.608Z,13.80
2023-03-11T12:04:12.704Z,13.20
2023-03-11T12:07:08.210Z,12.70
2023-03-11T12:09:41.766Z,11.80
2023-03-11T12:12:22.484Z,10.70
2023-03-11T12:14:58.796Z,9.70
2023-03-11T12:17:28.492Z,8.80
2023-03-11T12:20:00.355Z,8.10
2023-03-11T12:23:24.502Z,7.80
2023-03-11T12:26:05.661Z,7.50
2023-03-11T12:28:41.853Z,7.30
2023-03-11T12:31:13.014Z,7.30
2023-03-11T12:34:03.287Z,7.20
2023-03-11T12:36:34.270Z,7.40
2023-03-11T12:39:06.083Z,7.30
2023-03-11T12:41:39.715Z,7.50
2023-03-11T12:44:24.227Z,7.40
2023-03-11T12:47:22.389Z,7.30
2023-03-11T12:49:54.644Z,7.10
2023-03-11T12:52:27.570Z,7.00
2023-03-11T12:55:38.340Z,7.10
2023-03-11T12:58:40.955Z,7.10
2023-03-11T13:01:30.913Z,6.90
2023-03-11T13:04:13.201Z,7.10
2023-03-11T13:07:05.242Z,7.60
2023-03-11T13:09:33.345Z,7.80
2023-03-11T13:12:01.587Z,7.80
2023-03-11T13:14:33.934Z,7.80
2023-03-11T13:17:35.174Z,7.80
2023-03-11T13:20:04.757Z,7.90
2023-03-11T13:23:15.041Z,8.00
2023-03-11T13:25:44.415Z,7.80
2023-03-11T13:28:28.732Z,7.40
2023-03-11T13:31:09.750Z,7.40
2023-03-11T13:33:50.710Z,7.50
2023-03-11T13:36:42.343Z,7.50
2023-03-11T13:39:24.264Z,7.50
2023-03-11T13:41:52.502Z,7.50
2023-03-11T13:44:28.833Z,7.30
2023-03-11T13:47:02.215Z,7.30
2023-03-11T13:49:33.678Z,7.50
2023-03-11T13:52:04.856Z,7.50
2023-03-11T13:54:42.887Z,7.60
2023-03-11T13:57:28.795Z,7.60
2023-03-11T13:59:57.892Z,7.60
2023-03-11T14:02:27.772Z,7.60
2023-03-11T14:04:59.379Z,7.50
2023-03-11T14:07:31.679Z,7.20
2023-03-11T14:10:23.711Z,7.10
2023-03-11T14:12:52.295Z,7.40
2023-03-11T14:15:23.878Z,7.50
2023-03-11T14:17:52.685Z,7.40
2023-03-11T14:20:25.057Z,7.40
2023-03-11T14:22:55.934Z,7.60
2023-03-11T14:25:26.913Z,7.50
2023-03-11T14:27:57.191Z,7.60
2023-03-11T14:30:27.932Z,7.50
2023-03-11T14:33:01.953Z,7.60
2023-03-11T14:35:31.427Z,7.40
2023-03-11T14:38:01.366Z,7.40
2023-03-11T14:40:31.996Z,7.30
2023-03-11T14:43:02.188Z,7.30
2023-03-11T14:45:32.250Z,7.30
2023-03-11T14:48:04.474Z,7.20
2023-03-11T14:50:35.254Z,7.00
2023-03-11T14:53:08.806Z,6.90
2023-03-11T14:55:41.132Z,7.10
2023-03-11T14:58:15.924Z,7.00
2023-03-11T15:00:49.619Z,7.00
2023-03-11T15:03:24.307Z,7.00
2023-03-11T15:05:54.858Z,7.10
2023-03-11T15:08:26.590Z,7.10
2023-03-11T15:11:03.577Z,6.80
2023-03-11T15:13:32.028Z,6.50
2023-03-11T15:16:00.802Z,6.40
2023-03-11T15:18:33.314Z,6.40
2023-03-11T15:21:05.457Z,6.30
2023-03-11T15:23:37.166Z,6.50
2023-03-11T15:26:06.974Z,6.40
2023-03-11T15:28:37.366Z,6.30
2023-03-11T15:31:31.035Z,6.30
2023-03-11T15:34:22.068Z,6.20
2023-03-11T15:37:18.231Z,6.30
2023-03-11T15:39:51.233Z,6.50
2023-03-11T15:42:22.954Z,6.50
2023-03-11T15:45:13.973Z,6.50
2023-03-11T15:47:41.945Z,6.50
2023-03-11T15:50:26.343Z,6.30
2023-03-11T15:52:59.425Z,6.10
2023-03-11T15:55:29.033Z,5.80
2023-03-11T15:58:03.191Z,5.60
2023-03-11T16:00:31.136Z,5.40
2023-03-11T16:02:59.159Z,5.40
2023-03-11T16:05:27.068Z,5.30
2023-03-11T16:07:55.243Z,5.30
2023-03-11T16:10:25.484Z,5.30
2023-03-11T16:12:54.726Z,5.10
2023-03-11T16:15:28.389Z,5.00
2023-03-11T16:17:57.961Z,5.00
2023-03-11T16:20:28.254Z,4.90
2023-03-11T16:22:59.472Z,4.80
2023-03-11T16:25:30.396Z,4.90
2023-03-11T16:28:00.057Z,4.90
2023-03-11T16:30:30.065Z,5.00
2023-03-11T16:32:58.370Z,5.00
2023-03-11T16:35:27.498Z,5.10
2023-03-11T16:37:55.578Z,5.10
2023-03-11T16:40:26.726Z,4.90
2023-03-11T16:42:58.572Z,4.90
2023-03-11T16:45:27.870Z,4.80
2023-03-11T16:47:55.786Z,4.60
2023-03-11T16:50:24.841Z,4.20
2023-03-11T16:52:52.846Z,4.00
2023-03-11T16:55:20.991Z,3.80
2023-03-11T16:57:49.103Z,3.80
2023-03-11T17:00:18.188Z,3.70
2023-03-11T17:02:47.509Z,3.60
2023-03-11T17:05:15.463Z,3.60
2023-03-11T17:07:43.506Z,3.60
2023-03-11T17:10:12.641Z,3.50
2023-03-11T17:12:40.598Z,3.50
2023-03-11T17:15:09.289Z,3.40
2023-03-11T17:17:37.234Z,3.40
2023-03-11T17:20:08.293Z,3.40
2023-03-11T17:22:36.500Z,3.50
2023-03-11T17:25:05.035Z,3.40
2023-03-11T17:27:33.752Z,3.40
2023-03-11T17:30:02.770Z,3.40
2023-03-11T17:32:30.785Z,3.30
2023-03-11T17:34:58.989Z,3.30
2023-03-11T17:37:28.200Z,3.30
2023-03-11T17:39:56.070Z,3.20
2023-03-11T17:42:24.010Z,3.10
2023-03-11T17:44:52.374Z,3.20
2023-03-11T17:47:21.293Z,3.10
2023-03-11T17:49:49.600Z,3.10
2023-03-11T17:52:17.524Z,3.00
2023-03-11T17:54:46.789Z,3.00
2023-03-11T17:57:14.637Z,2.90
2023-03-11T17:59:42.516Z,3.00
2023-03-11T18:02:14.229Z,3.00
2023-03-11T18:04:45.944Z,3.10
2023-03-11T18:07:14.101Z,3.00
2023-03-11T18:09:42.046Z,3.00
2023-03-11T18:12:11.361Z,3.00
2023-03-11T18:14:39.241Z,2.80
2023-03-11T18:17:07.119Z,2.90
2023-03-11T18:19:35.340Z,2.80
2023-03-11T18:22:03.707Z,2.90
2023-03-11T18:24:31.576Z,2.80
2023-03-11T18:26:59.466Z,2.70
2023-03-11T18:29:28.693Z,2.70
2023-03-11T18:31:57.015Z,2.70
2023-03-11T18:34:24.927Z,2.70
2023-03-11T18:36:52.810Z,2.70
2023-03-11T18:39:20.892Z,2.70
2023-03-11T18:41:48.824Z,2.80
2023-03-11T18:44:16.733Z,2.80
2023-03-11T18:46:45.923Z,2.60
2023-03-11T18:49:14.842Z,2.60
2023-03-11T18:51:42.997Z,2.60
2023-03-11T18:54:11.755Z,2.50
2023-03-11T18:56:39.648Z,2.40
2023-03-11T18:59:08.571Z,2.30
2023-03-11T19:01:36.598Z,2.30
2023-03-11T19:04:06.340Z,2.30
2023-03-11T19:06:35.596Z,2.20
2023-03-11T19:09:03.869Z,2.20
2023-03-11T19:11:31.879Z,2.10
2023-03-11T19:13:59.943Z,2.10
2023-03-11T19:16:28.027Z,2.00
2023-03-11T19:18:56.424Z,2.00
2023-03-11T19:21:25.952Z,2.00
2023-03-11T19:23:55.316Z,2.10
2023-03-11T19:26:33.743Z,2.10
2023-03-11T19:29:09.859Z,2.20
2023-03-11T19:31:37.826Z,2.10
2023-03-11T19:34:05.751Z,2.10
2023-03-11T19:36:35.051Z,2.10
2023-03-11T19:39:03.188Z,2.20
2023-03-11T19:41:31.153Z,2.10
2023-03-11T19:43:59.081Z,2.10
2023-03-11T19:46:27.568Z,2.10
2023-03-11T19:48:56.654Z,2.10
2023-03-11T19:51:26.710Z,2.20
2023-03-11T19:53:57.746Z,2.30
2023-03-11T19:56:27.524Z,2.30
2023-03-11T19:58:55.561Z,2.40
2023-03-11T20:01:25.271Z,2.40
2023-03-11T20:03:53.721Z,2.40
2023-03-11T20:06:22.742Z,2.30
2023-03-11T20:08:51.161Z,2.30
2023-03-11T20:11:20.447Z,2.20
2023-03-11T20:13:48.583Z,2.20
2023-03-11T20:16:19.147Z,2.10
2023-03-11T20:18:50.511Z,2.10
2023-03-11T20:21:18.779Z,2.00
2023-03-11T20:23:48.794Z,2.00
2023-03-11T20:26:18.361Z,2.00
2023-03-11T20:28:48.017Z,2.00
2023-03-11T20:31:19.498Z,1.90
2023-03-11T20:33:48.072Z,1.80
2023-03-11T20:36:18.825Z,1.70
2023-03-11T20:38:47.605Z,1.70
2023-03-11T20:41:15.590Z,1.80
2023-03-11T20:43:44.095Z,1.80
2023-03-11T20:46:14.113Z,1.80
2023-03-11T20:48:42.061Z,1.80
2023-03-11T20:51:27.269Z,1.60
2023-03-11T20:53:55.426Z,1.40
2023-03-11T20:56:25.976Z,1.40
2023-03-11T20:58:55.781Z,1.40
2023-03-11T21:01:27.053Z,1.40
2023-03-11T21:03:57.047Z,1.30
2023-03-11T21:06:27.134Z,1.20
2023-03-11T21:08:55.954Z,1.10
2023-03-11T21:11:24.731Z,1.10
2023-03-11T21:13:53.323Z,1.10
2023-03-11T21:16:21.902Z,1.00
2023-03-11T21:18:51.255Z,1.00
2023-03-11T21:21:20.129Z,1.00
2023-03-11T21:23:48.870Z,0.90
2023-03-11T21:26:18.090Z,1.00
2023-03-11T21:28:46.751Z,1.10
2023-03-11T21:31:17.680Z,1.20
2023-03-11T21:33:46.582Z,1.10
2023-03-11T21:36:17.342Z,1.20
2023-03-11T21:38:47.256Z,1.20
2023-03-11T21:41:17.495Z,1.00
2023-03-11T21:43:46.108Z,0.90
2023-03-11T21:46:16.441Z,0.90
2023-03-11T21:48:44.902Z,1.00
2023-03-11T21:51:13.009Z,1.00
2023-03-11T21:53:42.313Z,0.90
2023-03-11T21:56:10.865Z,0.70
2023-03-11T21:58:38.994Z,0.70
2023-03-11T22:01:07.321Z,0.70
2023-03-11T22:03:36.105Z,0.70
2023-03-11T22:06:06.467Z,0.50
2023-03-11T22:08:35.246Z,0.50
2023-03-11T22:11:07.664Z,0.60
2023-03-11T22:13:35.630Z,0.50
2023-03-11T22:16:04.598Z,0.50
2023-03-11T22:18:32.740Z,0.40
2023-03-11T22:21:01.268Z,0.40
2023-03-11T22:23:29.312Z,0.40
2023-03-11T22:25:57.229Z,0.40
2023-03-11T22:28:26.787Z,0.50
2023-03-11T22:30:54.908Z,0.50
2023-03-11T22:33:22.779Z,0.40
2023-03-11T22:35:52.174Z,0.40
2023-03-11T22:38:20.083Z,0.40
2023-03-11T22:40:48.164Z,0.30
2023-03-11T22:43:16.525Z,0.20
2023-03-11T22:45:46.928Z,0.00
2023-03-11T22:48:14.916Z,0.00
2023-03-11T22:50:44.291Z,0.00
2023-03-11T22:53:12.788Z,0.00
2023-03-11T22:55:40.963Z,-0.10
2023-03-11T22:58:09.823Z,0.00
2023-03-11T23:00:38.894Z,0.10
2023-03-11T23:03:08.474Z,0.20
2023-03-11T23:05:41.829Z,0.20
2023-03-11T23:08:10.821Z,0.10
2023-03-11T23:10:40.927Z,0.10
2023-03-11T23:13:09.047Z,0.20
2023-03-11T23:15:36.943Z,0.20
2023-03-11T23:18:05.101Z,0.00
2023-03-11T23:20:35.536Z,-0.10
2023-03-11T23:23:03.700Z,-0.20
2023-03-11T23:25:32.071Z,-0.30
2023-03-11T23:28:01.870Z,-0.30
2023-03-11T23:30:29.885Z,-0.30
2023-03-11T23:32:58.113Z,-0.30
2023-03-11T23:35:26.390Z,-0.20
2023-03-11T23:37:55.619Z,0.00
2023-03-11T23:40:23.480Z,-0.10
2023-03-11T23:42:51.553Z,-0.10
2023-03-11T23:45:20.015Z,0.00
2023-03-11T23:47:47.893Z,0.10
2023-03-11T23:50:16.059Z,-0.10
2023-03-11T23:52:44.249Z,0.00
2023-03-11T23:55:13.885Z,0.00
2023-03-11T23:57:41.764Z,0.00
